Farmington, MI

12:17 AM EST on December 09, 2016 (GMT -0500)
Drayton Plains | | Change Station

Elev 990 ft 42.69 °N, 83.40 °W | Updated 8 seconds ago

Overcast
Overcast
27.3 °F
Feels Like 27.3 °F
N
0.0
Wind Variable Wind from NNE
Gusts 3.4 mph

Today
High -- | Low -- °F
--% Chance of Precip.
Yesterday
High -- | Low -- °F
Precip. -- in
Pressure 30.23 in
Visibility 10.0 miles
Clouds Mostly Cloudy 1800 ft
Mostly Cloudy 2200 ft
Mostly Cloudy 8000 ft
Dew Point 11.2 °F
Humidity 50%
Rainfall 0.00 in
Snow Depth Not available.
7:51 AM 5:00 PM
Waxing Gibbous, 70% visible
METAR KPTK 090453Z 28011KT 10SM BKN018 BKN022 BKN080 M03/M05 A3019 RMK AO2 SNE41 SLP237 P0000 T10281050 410111039 $
Pressure 30.23 in
Visibility 10.0 miles
Clouds Mostly Cloudy 1800 ft
Mostly Cloudy 2200 ft
Mostly Cloudy 8000 ft
Dew Point 11.2 °F
Humidity 50%
Rainfall 0.00 in
Snow Depth Not available.
7:51 AM 5:00 PM
Waxing Gibbous, 70% visible
METAR KPTK 090453Z 28011KT 10SM BKN018 BKN022 BKN080 M03/M05 A3019 RMK AO2 SNE41 SLP237 P0000 T10281050 410111039 $

10-Day Weather Forecast

Almanac

Astronomy

Dec. 09, 2016 Rise Set
Actual Time
Civil Twilight
Nautical Twilight
Astronomical Twilight
Moon
Length of Visible Light
Length of Day
Tomorrow will be .
, % of the Moon is Illuminated

Today's Extremes

State Highs State Lows

Community

WunderPhotos

Upload Photos

1,956,370 photos uploaded!

WunderBlog® & News

Nearby

Air Quality

  Air Quality AQ Index Pollutant
Not available.

Snow Depth

Station Depth Elevation

Earthquake Activity

City Distance Mag. Time & Date
Minimum magnitude displayed is 2.5.

Coastal Water Temperatures

Place Temperature

Stations

Nearby Weather Stations

Station Location Temp. Windchill Dew Point Humidity Wind Precip. Elev Updated Type
                   

Watches & Warnings

There are currently no watches in effect.